createdAt,value
2024-02-09T00:01:53.885Z,50.57
2024-02-09T00:04:21.260Z,50.85
2024-02-09T00:06:48.887Z,50.67
2024-02-09T00:09:16.046Z,50.85
2024-02-09T00:11:45.759Z,50.66
2024-02-09T00:14:14.434Z,50.63
2024-02-09T00:16:41.866Z,50.61
2024-02-09T00:19:10.543Z,50.64
2024-02-09T00:21:37.796Z,50.68
2024-02-09T00:24:05.465Z,50.95
2024-02-09T00:26:33.044Z,51.27
2024-02-09T00:29:02.274Z,51.09
2024-02-09T00:31:29.716Z,51.05
2024-02-09T00:33:56.893Z,51.04
2024-02-09T00:36:25.981Z,51.34
2024-02-09T00:38:53.073Z,51.31
2024-02-09T00:41:20.366Z,51.21
2024-02-09T00:43:47.857Z,51.29
2024-02-09T00:46:16.530Z,51.43
2024-02-09T00:48:43.808Z,51.52
2024-02-09T00:51:11.269Z,51.60
2024-02-09T00:53:40.586Z,51.61
2024-02-09T00:56:08.152Z,51.85
2024-02-09T00:58:35.303Z,51.95
2024-02-09T01:04:08.747Z,52.21
2024-02-09T01:06:36.540Z,52.08
2024-02-09T01:09:07.258Z,52.02
2024-02-09T01:11:35.788Z,52.13
2024-02-09T01:14:21.481Z,51.94
2024-02-09T01:17:08.960Z,52.08
2024-02-09T01:20:00.465Z,51.96
2024-02-09T01:22:46.773Z,52.37
2024-02-09T01:25:34.298Z,52.39
2024-02-09T01:28:21.961Z,52.56
2024-02-09T01:31:07.939Z,52.56
2024-02-09T01:33:53.892Z,53.08
2024-02-09T01:36:39.801Z,52.92
2024-02-09T01:39:31.301Z,53.17
2024-02-09T01:42:20.742Z,53.01
2024-02-09T01:45:09.891Z,52.95
2024-02-09T01:47:55.603Z,53.22
2024-02-09T01:50:41.846Z,53.19
2024-02-09T01:53:27.973Z,53.18
2024-02-09T01:56:14.168Z,53.52
2024-02-09T01:59:00.964Z,53.51
2024-02-09T02:01:47.097Z,53.48
2024-02-09T02:04:33.448Z,54.02
2024-02-09T02:07:19.690Z,53.56
2024-02-09T02:10:05.777Z,54.04
2024-02-09T02:12:51.651Z,54.38
2024-02-09T02:15:38.722Z,54.33
2024-02-09T02:18:25.218Z,54.64
2024-02-09T02:21:11.086Z,54.65
2024-02-09T02:24:02.169Z,54.30
2024-02-09T02:26:48.145Z,54.14
2024-02-09T02:29:39.947Z,54.37
2024-02-09T02:32:28.274Z,54.18
2024-02-09T02:35:14.298Z,54.42
2024-02-09T02:38:00.259Z,54.49
2024-02-09T02:40:46.442Z,54.72
2024-02-09T02:43:13.652Z,54.77
2024-02-09T02:45:43.303Z,54.73
2024-02-09T02:48:30.345Z,54.93
2024-02-09T02:51:16.436Z,54.63
2024-02-09T02:54:02.235Z,54.52
2024-02-09T02:56:48.137Z,54.83
2024-02-09T02:59:33.830Z,54.66
2024-02-09T03:02:19.467Z,54.97
2024-02-09T03:04:48.095Z,54.63
2024-02-09T03:07:49.669Z,54.90
2024-02-09T03:10:02.797Z,54.72
2024-02-09T03:12:30.493Z,54.82
2024-02-09T03:14:57.480Z,54.64
2024-02-09T03:17:26.026Z,54.92
2024-02-09T03:20:02.285Z,54.95
2024-02-09T03:22:30.886Z,54.52
2024-02-09T03:25:03.699Z,54.33
2024-02-09T03:27:32.503Z,54.62
2024-02-09T03:30:03.455Z,54.47
2024-02-09T03:32:32.244Z,54.53
2024-02-09T03:35:02.547Z,54.42
2024-02-09T03:37:32.126Z,54.34
2024-02-09T03:39:59.317Z,54.27
2024-02-09T03:42:26.906Z,54.53
2024-02-09T03:44:55.491Z,54.29
2024-02-09T03:47:25.759Z,54.14
2024-02-09T03:49:53.245Z,53.99
2024-02-09T03:52:23.054Z,54.13
2024-02-09T03:54:53.964Z,53.89
2024-02-09T03:57:21.890Z,54.09
2024-02-09T03:59:49.279Z,53.93
2024-02-09T04:02:17.231Z,53.92
2024-02-09T04:04:45.080Z,54.08
2024-02-09T04:07:13.072Z,53.68
2024-02-09T04:12:16.926Z,53.92
2024-02-09T04:14:44.830Z,53.94
2024-02-09T04:17:12.288Z,53.65
2024-02-09T04:19:39.545Z,53.55
2024-02-09T04:22:11.555Z,53.45
2024-02-09T04:24:38.832Z,53.43
2024-02-09T04:27:07.830Z,53.70
2024-02-09T04:29:34.967Z,54.06
2024-02-09T04:32:02.578Z,54.06
2024-02-09T04:34:29.862Z,53.53
2024-02-09T04:36:57.462Z,53.40
2024-02-09T04:39:24.674Z,53.35
2024-02-09T04:41:52.709Z,53.34
2024-02-09T04:44:24.675Z,53.67
2024-02-09T04:46:52.111Z,53.53
2024-02-09T04:49:19.683Z,53.50
2024-02-09T04:51:48.336Z,53.48
2024-02-09T04:54:16.211Z,53.12
2024-02-09T04:56:43.493Z,53.26
2024-02-09T04:59:11.635Z,53.28
2024-02-09T05:01:41.449Z,54.05
2024-02-09T05:04:11.188Z,53.33
2024-02-09T05:06:39.505Z,53.38
2024-02-09T05:09:08.345Z,53.08
2024-02-09T05:11:37.780Z,53.26
2024-02-09T05:14:06.312Z,53.02
2024-02-09T05:16:36.771Z,53.13
2024-02-09T05:19:09.333Z,53.23
2024-02-09T05:21:36.817Z,53.09
2024-02-09T05:24:04.938Z,53.31
2024-02-09T05:26:32.666Z,53.56
2024-02-09T05:29:04.201Z,53.22
2024-02-09T05:31:31.987Z,53.63
2024-02-09T05:33:59.768Z,53.59
2024-02-09T05:36:29.546Z,53.85
2024-02-09T05:39:01.963Z,53.74
2024-02-09T05:41:31.631Z,54.22
2024-02-09T05:43:59.857Z,53.91
2024-02-09T05:46:27.603Z,54.18
2024-02-09T05:48:57.452Z,54.13
2024-02-09T05:51:28.230Z,54.08
2024-02-09T05:53:58.083Z,53.83
2024-02-09T05:56:28.951Z,54.09
2024-02-09T05:58:57.867Z,54.23
2024-02-09T06:01:35.745Z,54.31
2024-02-09T06:04:03.514Z,54.34
2024-02-09T06:06:32.445Z,54.24
2024-02-09T06:09:02.974Z,54.55
2024-02-09T06:11:35.358Z,54.49
2024-02-09T06:14:05.677Z,54.32
2024-02-09T06:16:33.106Z,54.32
2024-02-09T06:19:01.023Z,54.51
2024-02-09T06:21:29.320Z,54.31
2024-02-09T06:23:58.286Z,54.19
2024-02-09T06:26:25.932Z,54.17
2024-02-09T06:28:54.150Z,53.87
2024-02-09T06:31:28.080Z,53.89
2024-02-09T06:33:58.127Z,54.38
2024-02-09T06:36:26.789Z,53.95
2024-02-09T06:38:55.188Z,53.77
2024-02-09T06:41:24.152Z,53.71
2024-02-09T06:43:53.370Z,53.80
2024-02-09T06:46:21.088Z,53.11
2024-02-09T06:48:49.886Z,53.15
2024-02-09T06:51:20.235Z,53.13
2024-02-09T06:53:48.040Z,52.79
2024-02-09T06:56:15.354Z,52.46
2024-02-09T06:58:46.957Z,52.21
2024-02-09T07:01:14.812Z,52.35
2024-02-09T07:03:42.619Z,51.79
2024-02-09T07:06:10.155Z,51.28
2024-02-09T07:08:51.760Z,51.39
2024-02-09T07:11:19.256Z,50.66
2024-02-09T07:13:48.322Z,50.73
2024-02-09T07:16:15.523Z,50.53
2024-02-09T07:18:44.118Z,50.66
2024-02-09T07:21:14.036Z,49.85
2024-02-09T07:23:42.142Z,50.04
2024-02-09T07:26:09.465Z,50.05
2024-02-09T07:28:38.688Z,50.15
2024-02-09T07:31:07.783Z,50.21
2024-02-09T07:33:35.352Z,50.42
2024-02-09T07:36:03.146Z,50.15
2024-02-09T07:38:30.601Z,50.38
2024-02-09T07:40:57.634Z,50.19
2024-02-09T07:43:25.267Z,50.02
2024-02-09T07:45:52.361Z,50.04
2024-02-09T07:48:21.308Z,50.25
2024-02-09T07:50:52.698Z,49.86
2024-02-09T07:53:20.259Z,49.85
2024-02-09T07:55:47.540Z,50.03
2024-02-09T07:58:18.443Z,49.56
2024-02-09T08:00:45.982Z,49.12
2024-02-09T08:03:14.680Z,49.75
2024-02-09T08:05:45.913Z,49.43
2024-02-09T08:08:21.152Z,49.30
2024-02-09T08:10:53.185Z,49.29
2024-02-09T08:13:24.245Z,49.33
2024-02-09T08:15:53.766Z,49.32
2024-02-09T08:18:21.290Z,49.23
2024-02-09T08:20:51.398Z,48.90
2024-02-09T08:23:20.448Z,49.55
2024-02-09T08:25:48.511Z,48.79
2024-02-09T08:28:18.947Z,48.58
2024-02-09T08:30:51.003Z,48.95
2024-02-09T08:33:18.997Z,48.40
2024-02-09T08:35:50.616Z,48.43
2024-02-09T08:38:20.053Z,48.33
2024-02-09T08:40:47.025Z,48.09
2024-02-09T08:43:14.577Z,48.16
2024-02-09T08:45:44.767Z,47.71
2024-02-09T08:48:13.844Z,46.91
2024-02-09T08:50:42.034Z,47.09
2024-02-09T08:53:09.622Z,46.38
2024-02-09T08:55:38.240Z,45.69
2024-02-09T08:58:08.288Z,45.06
2024-02-09T09:00:35.645Z,45.63
2024-02-09T09:03:03.128Z,45.88
2024-02-09T09:05:41.961Z,46.25
2024-02-09T09:08:13.638Z,46.60
2024-02-09T09:10:44.190Z,46.49
2024-02-09T09:13:11.987Z,45.46
2024-02-09T09:15:39.869Z,45.17
2024-02-09T09:18:08.062Z,45.67
2024-02-09T09:20:37.958Z,44.76
2024-02-09T09:23:05.989Z,44.63
2024-02-09T09:25:33.359Z,44.10
2024-02-09T09:28:02.288Z,44.24
2024-02-09T09:30:30.453Z,44.13
2024-02-09T09:32:59.319Z,43.06
2024-02-09T09:35:26.876Z,42.91
2024-02-09T09:37:54.463Z,43.05
2024-02-09T09:40:29.097Z,42.42
2024-02-09T09:42:56.823Z,42.27
2024-02-09T09:45:25.428Z,42.85
2024-02-09T09:47:56.803Z,41.96
2024-02-09T09:50:26.246Z,42.29
2024-02-09T09:52:55.653Z,42.67
2024-02-09T09:55:27.937Z,41.98
2024-02-09T09:57:55.658Z,42.13
2024-02-09T10:00:26.220Z,42.13
2024-02-09T10:02:54.848Z,41.83
2024-02-09T10:05:22.275Z,41.76
2024-02-09T10:07:50.268Z,41.73
2024-02-09T10:10:18.923Z,40.48
2024-02-09T10:12:46.369Z,40.95
2024-02-09T10:15:13.430Z,41.11
2024-02-09T10:17:42.411Z,40.76
2024-02-09T10:20:10.855Z,39.81
2024-02-09T10:22:38.572Z,40.27
2024-02-09T10:25:07.118Z,40.45
2024-02-09T10:27:36.591Z,39.99
2024-02-09T10:30:04.112Z,39.24
2024-02-09T10:32:34.731Z,39.69
2024-02-09T10:35:03.665Z,39.53
2024-02-09T10:37:32.363Z,39.65
2024-02-09T10:39:59.841Z,39.18
2024-02-09T10:42:27.356Z,39.71
2024-02-09T10:45:05.044Z,38.90
2024-02-09T10:47:38.466Z,40.04
2024-02-09T10:50:12.996Z,39.67
2024-02-09T10:52:45.104Z,39.56
2024-02-09T10:55:16.511Z,39.65
2024-02-09T10:57:45.932Z,39.76
2024-02-09T11:00:18.032Z,39.81
2024-02-09T11:02:45.644Z,40.02
2024-02-09T11:05:18.204Z,39.37
2024-02-09T11:07:47.410Z,39.24
2024-02-09T11:10:17.186Z,39.53
2024-02-09T11:12:45.178Z,40.18
2024-02-09T11:15:14.363Z,40.01
2024-02-09T11:17:46.725Z,39.82
2024-02-09T11:20:15.996Z,40.12
2024-02-09T11:22:45.320Z,40.06
2024-02-09T11:25:12.260Z,39.76
2024-02-09T11:27:47.825Z,40.19
2024-02-09T11:30:15.346Z,39.81
2024-02-09T11:32:46.332Z,39.89
2024-02-09T11:35:15.504Z,39.24
2024-02-09T11:37:44.352Z,39.50
2024-02-09T11:40:12.339Z,40.32
2024-02-09T11:42:40.453Z,39.88
2024-02-09T11:45:10.765Z,40.17
2024-02-09T11:47:40.359Z,40.18
2024-02-09T11:50:20.159Z,39.96
2024-02-09T11:53:10.923Z,40.17
2024-02-09T11:55:41.388Z,39.58
2024-02-09T11:58:09.557Z,39.97
2024-02-09T12:00:37.254Z,40.02
2024-02-09T12:03:05.194Z,39.42
2024-02-09T12:05:32.875Z,39.54
2024-02-09T12:08:01.931Z,39.68
2024-02-09T12:10:29.145Z,39.63
2024-02-09T12:12:56.733Z,39.64
2024-02-09T12:15:24.391Z,39.32
2024-02-09T12:17:51.992Z,39.77
2024-02-09T12:20:19.368Z,39.19
2024-02-09T12:22:48.465Z,39.04
2024-02-09T12:25:18.032Z,38.60
2024-02-09T12:27:45.548Z,38.78
2024-02-09T12:30:13.646Z,38.35
2024-02-09T12:32:42.434Z,38.82
2024-02-09T12:35:11.789Z,38.52
2024-02-09T12:37:39.382Z,37.72
2024-02-09T12:40:09.199Z,37.74
2024-02-09T12:42:42.594Z,36.78
2024-02-09T12:45:09.729Z,36.95
2024-02-09T12:47:39.966Z,37.46
2024-02-09T12:50:07.733Z,37.51
2024-02-09T12:52:37.610Z,37.44
2024-02-09T12:55:05.536Z,37.46
2024-02-09T12:57:33.212Z,37.19
2024-02-09T13:00:02.117Z,37.16
2024-02-09T13:02:30.145Z,37.25
2024-02-09T13:04:57.332Z,36.77
2024-02-09T13:07:24.734Z,37.33
2024-02-09T13:09:52.040Z,37.36
2024-02-09T13:12:20.472Z,37.18
2024-02-09T13:14:47.463Z,37.27
2024-02-09T13:17:17.290Z,37.70
2024-02-09T13:19:44.498Z,37.97
2024-02-09T13:22:12.887Z,37.68
2024-02-09T13:24:40.817Z,37.56
2024-02-09T13:27:08.822Z,37.48
2024-02-09T13:29:37.102Z,37.72
2024-02-09T13:32:06.593Z,37.60
2024-02-09T13:34:39.837Z,37.63
2024-02-09T13:37:13.570Z,38.03
2024-02-09T13:39:40.718Z,37.55
2024-02-09T13:42:11.302Z,37.62
2024-02-09T13:44:39.078Z,38.10
2024-02-09T13:47:09.427Z,38.14
2024-02-09T13:49:45.269Z,38.08
2024-02-09T13:52:13.523Z,38.40
2024-02-09T13:54:43.743Z,37.67
2024-02-09T13:57:13.051Z,37.60
2024-02-09T13:59:46.954Z,37.78
2024-02-09T14:02:18.220Z,38.10
2024-02-09T14:04:49.836Z,37.74
2024-02-09T14:07:19.674Z,37.41
2024-02-09T14:09:49.911Z,37.58
2024-02-09T14:12:18.676Z,37.25
2024-02-09T14:14:45.905Z,37.25
2024-02-09T14:17:14.835Z,37.14
2024-02-09T14:19:44.008Z,37.10
2024-02-09T14:22:13.960Z,37.59
2024-02-09T14:24:41.310Z,37.25
2024-02-09T14:27:12.215Z,37.50
2024-02-09T14:29:40.806Z,37.79
2024-02-09T14:32:09.255Z,38.44
2024-02-09T14:34:39.330Z,38.52
2024-02-09T14:37:08.464Z,37.68
2024-02-09T14:39:37.518Z,37.34
2024-02-09T14:42:05.269Z,37.13
2024-02-09T14:44:32.512Z,37.60
2024-02-09T14:47:14.739Z,38.00
2024-02-09T14:54:11.278Z,38.51
2024-02-09T14:56:48.729Z,38.56
2024-02-09T14:59:23.001Z,38.66
2024-02-09T15:01:51.201Z,38.63
2024-02-09T15:04:18.661Z,38.57
2024-02-09T15:06:46.258Z,38.70
2024-02-09T15:09:19.446Z,38.80
2024-02-09T15:11:48.290Z,38.92
2024-02-09T15:14:20.573Z,38.95
2024-02-09T15:16:50.444Z,39.06
2024-02-09T15:19:17.693Z,38.84
2024-02-09T15:21:54.943Z,38.96
2024-02-09T15:24:25.181Z,39.17
2024-02-09T15:26:54.487Z,39.29
2024-02-09T15:29:23.953Z,39.38
2024-02-09T15:31:54.151Z,39.39
2024-02-09T15:34:23.346Z,39.30
2024-02-09T15:36:51.398Z,39.46
2024-02-09T15:39:18.894Z,39.74
2024-02-09T15:41:47.024Z,39.40
2024-02-09T15:44:15.852Z,39.71
2024-02-09T15:46:43.914Z,39.48
2024-02-09T15:49:11.334Z,39.57
2024-02-09T15:51:38.848Z,39.76
2024-02-09T15:54:08.873Z,39.59
2024-02-09T15:56:42.851Z,39.89
2024-02-09T15:59:13.197Z,39.78
2024-02-09T16:01:42.020Z,39.95
2024-02-09T16:04:09.912Z,39.94
2024-02-09T16:06:37.360Z,40.16
2024-02-09T16:09:04.564Z,40.31
2024-02-09T16:11:32.687Z,40.26
2024-02-09T16:14:02.600Z,40.29
2024-02-09T16:16:32.218Z,40.08
2024-02-09T16:19:03.255Z,40.11
2024-02-09T16:21:34.460Z,40.09
2024-02-09T16:24:04.255Z,40.17
2024-02-09T16:26:32.466Z,40.07
2024-02-09T16:28:59.868Z,40.08
2024-02-09T16:31:27.543Z,40.48
2024-02-09T16:33:54.905Z,40.12
2024-02-09T16:36:23.818Z,40.19
2024-02-09T16:38:51.271Z,40.37
2024-02-09T16:41:19.040Z,40.40
2024-02-09T16:43:47.059Z,40.57
2024-02-09T16:46:15.217Z,40.46
2024-02-09T16:48:43.386Z,40.03
2024-02-09T16:51:12.064Z,40.11
2024-02-09T16:53:40.793Z,40.55
2024-02-09T16:56:08.131Z,40.71
2024-02-09T16:58:35.962Z,40.54
2024-02-09T17:01:03.573Z,40.63
2024-02-09T17:03:30.723Z,40.51
2024-02-09T17:05:58.364Z,41.07
2024-02-09T17:08:25.621Z,40.64
2024-02-09T17:10:54.789Z,40.85
2024-02-09T17:13:21.735Z,40.88
2024-02-09T17:15:49.834Z,40.87
2024-02-09T17:18:17.197Z,40.77
2024-02-09T17:20:44.706Z,41.00
2024-02-09T17:23:12.208Z,41.11
2024-02-09T17:25:41.411Z,41.21
2024-02-09T17:28:11.790Z,41.17
2024-02-09T17:30:42.722Z,41.13
2024-02-09T17:33:10.173Z,41.04
2024-02-09T17:35:39.609Z,41.48
2024-02-09T17:38:09.592Z,41.34
2024-02-09T17:40:37.722Z,41.34
2024-02-09T17:43:09.150Z,41.38
2024-02-09T17:45:40.307Z,41.77
2024-02-09T17:48:08.317Z,41.74
2024-02-09T17:50:36.173Z,41.66
2024-02-09T17:53:05.478Z,41.91
2024-02-09T17:55:33.266Z,42.21
2024-02-09T17:58:00.627Z,42.40
2024-02-09T18:00:28.049Z,42.44
2024-02-09T18:03:02.066Z,42.96
2024-02-09T18:05:32.956Z,42.90
2024-02-09T18:08:00.263Z,42.83
2024-02-09T18:10:29.134Z,42.92
2024-02-09T18:12:57.934Z,42.93
2024-02-09T18:15:25.525Z,43.00
2024-02-09T18:17:52.965Z,43.25
2024-02-09T18:20:22.180Z,42.87
2024-02-09T18:22:49.531Z,43.13
2024-02-09T18:25:18.848Z,43.21
2024-02-09T18:27:46.096Z,43.21
2024-02-09T18:30:16.065Z,43.01
2024-02-09T18:32:43.573Z,44.30
2024-02-09T18:35:15.420Z,54.63
2024-02-09T18:37:44.097Z,48.25
2024-02-09T18:40:14.647Z,43.68
2024-02-09T18:42:42.649Z,43.73
2024-02-09T18:45:12.076Z,43.77
2024-02-09T18:47:40.701Z,43.61
2024-02-09T18:50:11.304Z,43.71
2024-02-09T18:52:42.589Z,43.68
2024-02-09T18:55:12.574Z,43.67
2024-02-09T18:57:42.840Z,43.59
2024-02-09T19:00:11.716Z,43.35
2024-02-09T19:02:41.687Z,43.39
2024-02-09T19:05:10.472Z,43.46
2024-02-09T19:07:41.705Z,43.51
2024-02-09T19:10:12.121Z,43.63
2024-02-09T19:12:39.783Z,43.04
2024-02-09T19:15:11.159Z,43.16
2024-02-09T19:17:39.049Z,42.75
2024-02-09T19:20:08.790Z,43.17
2024-02-09T19:22:36.082Z,43.68
2024-02-09T19:25:04.413Z,43.56
2024-02-09T19:27:33.174Z,42.78
2024-02-09T19:30:01.385Z,42.61
2024-02-09T19:34:11.769Z,42.70
2024-02-09T19:40:51.824Z,42.92
2024-02-09T19:43:23.260Z,42.79
2024-02-09T19:45:51.463Z,42.54
2024-02-09T19:48:18.910Z,42.92
2024-02-09T19:50:52.105Z,42.69
2024-02-09T19:53:22.989Z,42.93
2024-02-09T19:55:50.455Z,42.58
2024-02-09T19:58:19.539Z,42.66
2024-02-09T20:00:52.685Z,42.81
2024-02-09T20:03:20.531Z,42.65
2024-02-09T20:05:50.971Z,42.64
2024-02-09T20:08:19.921Z,42.53
2024-02-09T20:10:47.268Z,44.45
2024-02-09T20:13:15.456Z,43.65
2024-02-09T20:15:42.614Z,43.13
2024-02-09T20:18:11.647Z,42.86
2024-02-09T20:20:39.738Z,42.77
2024-02-09T20:23:07.529Z,43.09
2024-02-09T20:25:35.586Z,43.01
2024-02-09T20:28:03.823Z,43.09
2024-02-09T20:30:33.066Z,42.94
2024-02-09T20:33:03.085Z,43.01
2024-02-09T20:35:32.226Z,43.04
2024-02-09T20:38:04.744Z,43.08
2024-02-09T20:40:33.051Z,42.62
2024-02-09T20:43:01.754Z,43.50
2024-02-09T20:45:30.808Z,44.76
2024-02-09T20:48:01.429Z,44.73
2024-02-09T20:50:32.295Z,43.37
2024-02-09T20:53:07.125Z,43.25
2024-02-09T20:55:37.512Z,43.20
2024-02-09T20:58:07.025Z,42.78
2024-02-09T21:00:39.823Z,43.14
2024-02-09T21:03:09.688Z,43.23
2024-02-09T21:05:39.466Z,43.23
2024-02-09T21:08:09.965Z,43.05
2024-02-09T21:10:37.403Z,42.93
2024-02-09T21:13:05.030Z,43.13
2024-02-09T21:15:33.011Z,43.09
2024-02-09T21:18:01.271Z,43.19
2024-02-09T21:20:28.842Z,43.31
2024-02-09T21:22:57.039Z,43.36
2024-02-09T21:25:32.479Z,43.67
2024-02-09T21:28:02.569Z,43.43
2024-02-09T21:30:33.309Z,43.42
2024-02-09T21:33:05.662Z,43.75
2024-02-09T21:35:37.961Z,43.60
2024-02-09T21:38:05.607Z,43.65
2024-02-09T21:40:34.257Z,43.71
2024-02-09T21:43:02.715Z,43.63
2024-02-09T21:45:30.236Z,43.59
2024-02-09T21:47:59.840Z,43.59
2024-02-09T21:50:27.432Z,43.45
2024-02-09T21:52:59.245Z,43.60
2024-02-09T21:55:28.776Z,43.71
2024-02-09T21:57:58.134Z,43.62
2024-02-09T22:00:31.457Z,43.65
2024-02-09T22:03:02.289Z,43.79
2024-02-09T22:05:33.628Z,43.60
2024-02-09T22:08:02.950Z,43.79
2024-02-09T22:10:34.562Z,43.85
2024-02-09T22:13:14.645Z,43.55
2024-02-09T22:15:43.894Z,43.89
2024-02-09T22:18:13.638Z,43.89
2024-02-09T22:20:44.089Z,44.05
2024-02-09T22:23:14.590Z,44.10
2024-02-09T22:25:43.182Z,43.87
2024-02-09T22:28:13.252Z,43.91
2024-02-09T22:30:40.912Z,44.04
2024-02-09T22:33:11.811Z,43.82
2024-02-09T22:35:39.043Z,43.71
2024-02-09T22:38:06.406Z,43.93
2024-02-09T22:40:33.774Z,43.95
2024-02-09T22:43:01.283Z,44.12
2024-02-09T22:45:29.859Z,44.16
2024-02-09T22:47:57.434Z,44.06
2024-02-09T22:50:25.028Z,43.99
2024-02-09T22:53:02.483Z,44.23
2024-02-09T22:55:29.710Z,44.25
2024-02-09T22:57:57.144Z,44.24
2024-02-09T23:00:31.184Z,44.36
2024-02-09T23:03:00.497Z,44.34
2024-02-09T23:05:30.886Z,44.47
2024-02-09T23:07:59.288Z,44.35
2024-02-09T23:10:26.517Z,44.44
2024-02-09T23:12:53.940Z,44.56
2024-02-09T23:15:22.285Z,44.65
2024-02-09T23:17:51.704Z,44.59
2024-02-09T23:20:21.218Z,44.63
2024-02-09T23:22:52.208Z,44.81
2024-02-09T23:25:20.481Z,44.62
2024-02-09T23:27:48.916Z,44.78
2024-02-09T23:30:16.076Z,44.57
2024-02-09T23:32:44.038Z,44.58
2024-02-09T23:35:13.511Z,44.47
2024-02-09T23:37:43.406Z,44.44
2024-02-09T23:40:12.210Z,44.68
2024-02-09T23:42:39.627Z,44.87
2024-02-09T23:45:09.946Z,44.73
2024-02-09T23:47:40.093Z,44.77
2024-02-09T23:50:09.308Z,44.72
2024-02-09T23:52:38.941Z,45.10
2024-02-09T23:55:16.046Z,44.77
2024-02-09T23:57:57.025Z,44.83
